Time;durP1;ratioP1;P1;durP2;ratioP2;P2;SDS_P1;SDS_P2;PMS_P1;PMS_P2;Temp;Humidity;BMP_temperature;BMP_pressure;BME280_temperature;BME280_humidity;BME280_pressure;Samples;Min_cycle;Max_cycle;Signal;HPM_P1;HPM_P2
2024/01/02 00:02:19;;;;;;;1999.90;999.90;;;6.30;99.90;;;;;;5081234;28;20425;-72
2024/01/02 00:04:46;;;;;;;1999.90;999.90;;;6.30;99.90;;;;;;5075711;28;20403;-71
2024/01/02 00:07:12;;;;;;;1999.90;999.90;;;6.40;99.90;;;;;;5071101;28;20419;-72
2024/01/02 00:09:39;;;;;;;1999.90;999.90;;;6.50;99.90;;;;;;5070606;28;20441;-73
2024/01/02 00:12:07;;;;;;;1999.90;999.90;;;6.50;99.90;;;;;;5070722;28;20479;-71
2024/01/02 00:14:34;;;;;;;1999.90;999.90;;;6.60;99.90;;;;;;5069928;28;20515;-73
2024/01/02 00:17:02;;;;;;;1999.90;999.90;;;6.50;99.90;;;;;;5075741;28;20415;-72
2024/01/02 00:19:29;;;;;;;1999.90;999.90;;;6.50;99.90;;;;;;5079080;28;20481;-71
2024/01/02 00:21:55;;;;;;;1999.90;999.90;;;6.50;99.90;;;;;;5072779;28;20411;-72
2024/01/02 00:24:22;;;;;;;1999.90;999.90;;;6.50;99.90;;;;;;5070158;28;20431;-73
2024/01/02 00:26:49;;;;;;;1999.90;999.90;;;6.50;99.90;;;;;;5067283;28;21085;-71
2024/01/02 00:29:16;;;;;;;1999.90;999.90;;;6.40;99.90;;;;;;5073353;28;20415;-71
2024/01/02 00:31:44;;;;;;;1999.90;999.90;;;6.40;99.90;;;;;;5078747;28;20424;-72
2024/01/02 00:34:12;;;;;;;1999.90;999.90;;;6.20;99.90;;;;;;5070620;28;20434;-71
2024/01/02 00:36:39;;;;;;;1999.90;999.90;;;6.30;99.90;;;;;;5069612;28;20426;-72
2024/01/02 00:39:06;;;;;;;1999.90;999.90;;;6.50;99.90;;;;;;5070396;28;20432;-71
2024/01/02 00:41:32;;;;;;;1999.90;999.90;;;6.50;99.90;;;;;;5076544;28;20775;-71
2024/01/02 00:43:59;;;;;;;1999.90;999.90;;;6.60;99.90;;;;;;5062371;28;20427;-72
2024/01/02 00:46:26;;;;;;;1999.90;999.90;;;6.50;99.90;;;;;;5066358;28;20411;-72
2024/01/02 00:48:52;;;;;;;1999.90;999.90;;;6.40;99.90;;;;;;5075542;28;20469;-71
2024/01/02 00:51:20;;;;;;;1999.90;999.90;;;6.50;99.90;;;;;;5070082;28;20442;-69
2024/01/02 00:53:47;;;;;;;1999.90;999.90;;;6.40;99.90;;;;;;5069391;28;20461;-69
2024/01/02 00:56:14;;;;;;;1999.90;999.90;;;6.30;99.90;;;;;;5072212;28;20405;-71
2024/01/02 00:58:41;;;;;;;1999.90;999.90;;;6.10;99.90;;;;;;5068900;28;20423;-71
2024/01/02 01:01:08;;;;;;;1999.90;999.90;;;6.10;99.90;;;;;;5071936;28;20473;-72
2024/01/02 01:03:35;;;;;;;1999.90;999.90;;;6.10;99.90;;;;;;5073036;28;20443;-70
2024/01/02 01:06:03;;;;;;;1999.90;999.90;;;6.10;99.90;;;;;;5069596;28;20428;-69
2024/01/02 01:08:31;;;;;;;1999.90;999.90;;;6.10;99.90;;;;;;5082570;28;20414;-71
2024/01/02 01:10:57;;;;;;;1999.90;999.90;;;6.40;99.90;;;;;;5085534;28;20404;-72
2024/01/02 01:13:25;;;;;;;1999.90;999.90;;;6.60;99.90;;;;;;5071618;28;20461;-71
2024/01/02 01:15:51;;;;;;;1999.90;999.90;;;6.70;99.90;;;;;;5069165;28;20431;-72
2024/01/02 01:18:18;;;;;;;1999.90;999.90;;;6.70;99.90;;;;;;5069633;28;20403;-67
2024/01/02 01:20:45;;;;;;;1999.90;999.90;;;6.50;99.90;;;;;;5071142;28;20423;-68
2024/01/02 01:23:12;;;;;;;1999.90;999.90;;;6.60;99.90;;;;;;5073111;28;20412;-72
2024/01/02 01:25:40;;;;;;;1999.90;999.90;;;6.60;99.90;;;;;;5063051;28;20426;-70
2024/01/02 01:28:06;;;;;;;1999.90;999.90;;;6.30;99.90;;;;;;5069879;28;20463;-69
2024/01/02 01:30:33;;;;;;;1999.90;999.90;;;6.10;99.90;;;;;;5077004;28;20434;-70
2024/01/02 01:33:00;;;;;;;1999.90;999.90;;;6.10;99.90;;;;;;5078400;28;20501;-72
2024/01/02 01:35:26;;;;;;;1999.90;999.90;;;6.10;99.90;;;;;;5078483;28;20425;-71
2024/01/02 01:37:53;;;;;;;1999.90;999.90;;;6.20;99.90;;;;;;5070511;28;20790;-69
2024/01/02 01:40:20;;;;;;;1999.90;999.90;;;6.20;99.90;;;;;;5073807;28;20917;-69
2024/01/02 01:42:48;;;;;;;1999.90;999.90;;;6.30;99.90;;;;;;5078378;28;20412;-71
2024/01/02 01:45:14;;;;;;;1999.90;999.90;;;6.60;99.90;;;;;;5079313;28;20483;-71
2024/01/02 01:47:41;;;;;;;1999.90;999.90;;;6.80;99.90;;;;;;5078032;28;20447;-70
2024/01/02 01:50:09;;;;;;;1999.90;999.90;;;6.80;99.90;;;;;;5079158;28;20405;-70
2024/01/02 01:52:36;;;;;;;1999.90;999.90;;;6.80;99.90;;;;;;5076826;28;20415;-70
2024/01/02 01:55:04;;;;;;;1999.90;999.90;;;6.80;99.90;;;;;;5075120;28;20975;-70
2024/01/02 01:57:31;;;;;;;1999.90;999.90;;;6.90;99.90;;;;;;5075437;28;20457;-68
2024/01/02 02:00:00;;;;;;;1999.90;999.90;;;6.90;99.90;;;;;;5073060;28;20501;-70
2024/01/02 02:02:27;;;;;;;1999.90;999.90;;;7.00;99.90;;;;;;5087946;28;20410;-69
2024/01/02 02:04:54;;;;;;;1999.90;999.90;;;6.80;99.90;;;;;;5080483;28;20428;-70
2024/01/02 02:07:21;;;;;;;1999.90;999.90;;;6.70;99.90;;;;;;5073547;28;20419;-73
2024/01/02 02:09:47;;;;;;;1999.90;999.90;;;6.60;99.90;;;;;;5078353;28;20407;-72
2024/01/02 02:12:15;;;;;;;1999.90;999.90;;;6.90;99.90;;;;;;5086248;28;20414;-71
2024/01/02 02:14:41;;;;;;;1999.90;999.90;;;7.10;99.90;;;;;;5078633;28;20435;-70
2024/01/02 02:17:17;;;;;;;1999.90;999.90;;;7.30;99.90;;;;;;5079702;28;20423;-73
2024/01/02 02:19:44;;;;;;;1999.90;999.90;;;7.30;99.90;;;;;;5072860;28;20480;-71
2024/01/02 02:22:14;;;;;;;1999.90;999.90;;;7.30;99.90;;;;;;5072970;28;20465;-70
2024/01/02 02:24:42;;;;;;;1999.90;999.90;;;7.30;99.90;;;;;;5074805;28;20431;-69
2024/01/02 02:27:09;;;;;;;1999.90;999.90;;;7.40;99.90;;;;;;5067378;28;20412;-71
2024/01/02 02:29:36;;;;;;;1999.90;999.90;;;7.50;99.90;;;;;;5072967;28;20893;-70
2024/01/02 02:32:03;;;;;;;1999.90;999.90;;;7.40;99.90;;;;;;5081700;28;20424;-71
2024/01/02 02:34:29;;;;;;;1999.90;999.90;;;7.40;99.90;;;;;;5075209;28;20435;-70
2024/01/02 02:36:56;;;;;;;1999.90;999.90;;;7.30;99.90;;;;;;5072825;28;20431;-67
2024/01/02 02:39:23;;;;;;;1999.90;999.90;;;7.10;99.90;;;;;;5076882;28;20428;-70
2024/01/02 02:41:51;;;;;;;1999.90;999.90;;;7.00;99.90;;;;;;5072122;28;20415;-72
2024/01/02 02:44:17;;;;;;;1999.90;999.90;;;7.00;99.90;;;;;;5072275;28;20416;-69
2024/01/02 02:46:44;;;;;;;1999.90;999.90;;;6.90;99.90;;;;;;5070442;28;20489;-71
2024/01/02 02:49:11;;;;;;;1999.90;999.90;;;6.80;99.90;;;;;;5073294;28;20431;-71
2024/01/02 02:51:37;;;;;;;1999.90;999.90;;;6.80;99.90;;;;;;5074713;28;20416;-69
2024/01/02 02:54:04;;;;;;;1999.90;999.90;;;6.90;99.90;;;;;;5083673;28;20427;-72
2024/01/02 02:56:31;;;;;;;1999.90;999.90;;;7.10;99.90;;;;;;5085025;28;20407;-70
2024/01/02 02:58:59;;;;;;;1999.90;999.90;;;7.20;99.90;;;;;;5077399;28;20405;-70
2024/01/02 03:01:25;;;;;;;1999.90;999.90;;;7.30;99.90;;;;;;5073618;28;20427;-72
2024/01/02 03:03:52;;;;;;;1999.90;999.90;;;7.30;99.90;;;;;;5079947;28;20415;-70
2024/01/02 03:06:19;;;;;;;1999.90;999.90;;;7.20;99.90;;;;;;5082188;28;20465;-71
2024/01/02 03:08:46;;;;;;;1999.90;999.90;;;7.10;99.90;;;;;;5072251;28;20465;-69
2024/01/02 03:11:12;;;;;;;1999.90;999.90;;;7.20;99.90;;;;;;5071550;28;20431;-71
2024/01/02 03:13:39;;;;;;;1999.90;999.90;;;7.20;99.90;;;;;;5073480;28;20412;-72
2024/01/02 03:16:08;;;;;;;1999.90;999.90;;;7.10;99.90;;;;;;5072702;28;20426;-70
2024/01/02 03:18:35;;;;;;;1999.90;999.90;;;7.00;99.90;;;;;;5084733;28;20402;-70
2024/01/02 03:21:02;;;;;;;1999.90;999.90;;;6.90;99.90;;;;;;5069252;28;20487;-69
2024/01/02 03:23:28;;;;;;;1999.90;999.90;;;6.90;99.90;;;;;;5074191;28;20428;-71
2024/01/02 03:25:55;;;;;;;1999.90;999.90;;;6.90;99.90;;;;;;5073324;28;20415;-69
2024/01/02 03:28:22;;;;;;;1999.90;999.90;;;7.00;99.90;;;;;;5066578;28;20488;-71
2024/01/02 03:30:49;;;;;;;1999.90;999.90;;;6.90;99.90;;;;;;5077657;28;20412;-70
2024/01/02 03:33:17;;;;;;;1999.90;999.90;;;6.90;99.90;;;;;;5076275;28;20453;-70
2024/01/02 03:35:44;;;;;;;1999.90;999.90;;;6.90;99.90;;;;;;5072398;28;20465;-69
2024/01/02 03:38:11;;;;;;;1999.90;999.90;;;7.00;99.90;;;;;;5070859;28;20510;-70
2024/01/02 03:40:38;;;;;;;1999.90;999.90;;;6.80;99.90;;;;;;5071252;28;20431;-69
2024/01/02 03:43:04;;;;;;;1999.90;999.90;;;6.80;99.90;;;;;;5076543;28;20437;-67
2024/01/02 03:45:31;;;;;;;1999.90;999.90;;;6.80;99.90;;;;;;5077827;28;20408;-72
2024/01/02 03:47:58;;;;;;;1999.90;999.90;;;6.90;99.90;;;;;;5079382;28;20428;-69
2024/01/02 03:50:26;;;;;;;1999.90;999.90;;;6.80;99.90;;;;;;5075293;28;20411;-69
2024/01/02 03:52:53;;;;;;;1999.90;999.90;;;6.80;99.90;;;;;;5075624;28;20477;-71
2024/01/02 03:55:20;;;;;;;1999.90;999.90;;;6.80;99.90;;;;;;5076355;28;20417;-70
2024/01/02 03:57:47;;;;;;;1999.90;999.90;;;6.70;99.90;;;;;;5072313;28;20424;-68
2024/01/02 04:00:14;;;;;;;1999.90;999.90;;;6.60;99.90;;;;;;5071084;28;20866;-70
2024/01/02 04:02:41;;;;;;;1999.90;999.90;;;6.60;99.90;;;;;;5078631;28;20419;-69
2024/01/02 04:05:10;;;;;;;1999.90;999.90;;;6.60;99.90;;;;;;5072663;28;20422;-66
2024/01/02 04:07:38;;;;;;;1999.90;999.90;;;6.60;99.90;;;;;;5072732;28;20463;-69
2024/01/02 04:10:06;;;;;;;1999.90;999.90;;;6.70;99.90;;;;;;5070617;28;20415;-69
2024/01/02 04:12:33;;;;;;;1999.90;999.90;;;6.70;99.90;;;;;;5077178;28;20763;-70
2024/01/02 04:14:59;;;;;;;1999.90;999.90;;;6.60;99.90;;;;;;5079216;28;20424;-69
2024/01/02 04:17:26;;;;;;;1999.90;999.90;;;6.60;99.90;;;;;;5069408;28;20421;-68
2024/01/02 04:19:53;;;;;;;1999.90;999.90;;;6.60;99.90;;;;;;5070337;28;20452;-70
2024/01/02 04:22:19;;;;;;;1999.90;999.90;;;6.60;99.90;;;;;;5075068;28;20408;-69
2024/01/02 04:24:47;;;;;;;1999.90;999.90;;;6.60;99.90;;;;;;5078139;28;20442;-68
2024/01/02 04:27:14;;;;;;;1999.90;999.90;;;6.60;99.90;;;;;;5074133;28;20414;-71
2024/01/02 04:29:41;;;;;;;1999.90;999.90;;;6.70;99.90;;;;;;5067422;28;20675;-67
2024/01/02 04:32:07;;;;;;;1999.90;999.90;;;6.70;99.90;;;;;;5072896;28;20457;-70
2024/01/02 04:34:34;;;;;;;1999.90;999.90;;;6.70;99.90;;;;;;5074476;28;20412;-68
2024/01/02 04:37:01;;;;;;;1999.90;999.90;;;6.70;99.90;;;;;;5079995;28;20410;-69
2024/01/02 04:39:27;;;;;;;1999.90;999.90;;;6.70;99.90;;;;;;5070982;28;20476;-69
2024/01/02 04:41:55;;;;;;;1999.90;999.90;;;6.70;99.90;;;;;;5070108;28;20412;-69
2024/01/02 04:44:22;;;;;;;1999.90;999.90;;;6.70;99.90;;;;;;5073176;28;20418;-70
2024/01/02 04:46:49;;;;;;;1999.90;999.90;;;6.70;99.90;;;;;;5073438;28;20415;-68
2024/01/02 04:49:15;;;;;;;1999.90;999.90;;;6.70;99.90;;;;;;5069163;28;20431;-68
2024/01/02 04:51:42;;;;;;;1999.90;999.90;;;6.70;99.90;;;;;;5073764;28;20458;-69
2024/01/02 04:54:09;;;;;;;1999.90;999.90;;;6.70;99.90;;;;;;5077516;28;20465;-69
2024/01/02 04:56:35;;;;;;;1999.90;999.90;;;6.70;99.90;;;;;;5071675;28;20466;-68
2024/01/02 04:59:03;;;;;;;1999.90;999.90;;;6.70;99.90;;;;;;5066488;28;20493;-69
2024/01/02 05:01:30;;;;;;;1999.90;999.90;;;6.70;99.90;;;;;;5069769;28;20522;-69
2024/01/02 05:03:57;;;;;;;1999.90;999.90;;;6.80;99.90;;;;;;5075592;28;20430;-70
2024/01/02 05:06:24;;;;;;;1999.90;999.90;;;6.70;99.90;;;;;;5084272;28;20467;-69
2024/01/02 05:08:51;;;;;;;1999.90;999.90;;;6.70;99.90;;;;;;5070342;28;22836;-70
2024/01/02 05:11:17;;;;;;;1999.90;999.90;;;6.70;99.90;;;;;;5073399;28;20400;-67
2024/01/02 05:13:44;;;;;;;1999.90;999.90;;;6.70;99.90;;;;;;5074130;28;20411;-71
2024/01/02 05:16:12;;;;;;;1999.90;999.90;;;6.80;99.90;;;;;;5080927;28;20459;-71
2024/01/02 05:18:39;;;;;;;1999.90;999.90;;;6.80;99.90;;;;;;5069908;28;21008;-70
2024/01/02 05:21:07;;;;;;;1999.90;999.90;;;6.80;99.90;;;;;;5055402;28;20432;-70
2024/01/02 05:23:33;;;;;;;1999.90;999.90;;;6.80;99.90;;;;;;5072310;28;20412;-71
2024/01/02 05:26:00;;;;;;;1999.90;999.90;;;6.70;99.90;;;;;;5077419;28;20475;-72
2024/01/02 05:28:27;;;;;;;1999.90;999.90;;;6.70;99.90;;;;;;5070417;28;20493;-70
2024/01/02 05:30:54;;;;;;;1999.90;999.90;;;6.70;99.90;;;;;;5065358;28;20506;-71
2024/01/02 05:33:22;;;;;;;1999.90;999.90;;;6.70;99.90;;;;;;5067925;28;20418;-70
2024/01/02 05:35:49;;;;;;;1999.90;999.90;;;6.80;99.90;;;;;;5072249;28;20461;-72
2024/01/02 05:38:16;;;;;;;1999.90;999.90;;;6.80;99.90;;;;;;5064888;28;20500;-69
2024/01/02 05:40:42;;;;;;;1999.90;999.90;;;6.80;99.90;;;;;;5076602;28;20429;-70
2024/01/02 05:43:10;;;;;;;1999.90;999.90;;;6.80;99.90;;;;;;5071013;28;20480;-70
2024/01/02 05:45:36;;;;;;;1999.90;999.90;;;6.80;99.90;;;;;;5071196;28;20418;-71
2024/01/02 05:48:04;;;;;;;1999.90;999.90;;;6.80;99.90;;;;;;5068770;28;20511;-69
2024/01/02 05:50:32;;;;;;;1999.90;999.90;;;6.70;99.90;;;;;;5076839;28;20402;-70
2024/01/02 05:52:59;;;;;;;1999.90;999.90;;;6.70;99.90;;;;;;5077640;28;20407;-68
2024/01/02 05:55:25;;;;;;;1999.90;999.90;;;6.70;99.90;;;;;;5070233;28;20407;-70
2024/01/02 05:57:52;;;;;;;1999.90;999.90;;;6.60;99.90;;;;;;5069841;28;20595;-70
2024/01/02 06:00:19;;;;;;;1999.90;999.90;;;6.70;99.90;;;;;;5075846;28;20479;-70
2024/01/02 06:02:46;;;;;;;1999.90;999.90;;;6.70;99.90;;;;;;5076579;28;20417;-69
2024/01/02 06:05:13;;;;;;;1999.90;999.90;;;6.70;99.90;;;;;;5068306;28;20481;-70
2024/01/02 06:07:41;;;;;;;1999.90;999.90;;;6.70;99.90;;;;;;5070235;28;20427;-70
2024/01/02 06:10:09;;;;;;;1999.90;999.90;;;6.60;99.90;;;;;;5072765;28;20467;-71
2024/01/02 06:12:35;;;;;;;1999.90;999.90;;;6.60;99.90;;;;;;5074401;28;20462;-70
2024/01/02 06:15:03;;;;;;;1999.90;999.90;;;6.50;99.90;;;;;;5062264;28;20431;-71
2024/01/02 06:17:29;;;;;;;1999.90;999.90;;;6.50;99.90;;;;;;5069372;28;20461;-71
2024/01/02 06:19:56;;;;;;;1999.90;999.90;;;6.50;99.90;;;;;;5068905;28;20449;-70
2024/01/02 06:22:23;;;;;;;1999.90;999.90;;;6.50;99.90;;;;;;5070719;28;20428;-70
2024/01/02 06:24:51;;;;;;;1999.90;999.90;;;6.40;99.90;;;;;;5076881;28;20411;-71
2024/01/02 06:27:18;;;;;;;1999.90;999.90;;;6.30;99.90;;;;;;5080711;28;20473;-70
2024/01/02 06:29:44;;;;;;;1999.90;999.90;;;6.30;99.90;;;;;;5066018;28;20487;-71
2024/01/02 06:32:11;;;;;;;1999.90;999.90;;;6.40;99.90;;;;;;5077081;28;20472;-71
2024/01/02 06:34:38;;;;;;;1999.90;999.90;;;6.30;99.90;;;;;;5073222;28;20420;-72
2024/01/02 06:37:05;;;;;;;1999.90;999.90;;;6.30;99.90;;;;;;5077995;28;20477;-70
2024/01/02 06:39:32;;;;;;;1999.90;999.90;;;6.20;99.90;;;;;;5075402;28;20518;-71
2024/01/02 06:42:00;;;;;;;1999.90;999.90;;;6.10;99.90;;;;;;5074590;28;20429;-71
2024/01/02 06:44:27;;;;;;;1999.90;999.90;;;6.10;99.90;;;;;;5066248;28;20439;-70
2024/01/02 06:46:53;;;;;;;1999.90;999.90;;;6.10;99.90;;;;;;5073727;28;20503;-67
2024/01/02 06:49:20;;;;;;;1999.90;999.90;;;6.10;99.90;;;;;;5076771;28;20427;-67
2024/01/02 06:51:47;;;;;;;1999.90;999.90;;;6.00;99.90;;;;;;5060544;28;20413;-66
2024/01/02 06:54:13;;;;;;;1999.90;999.90;;;6.00;99.90;;;;;;5074611;28;20404;-68
2024/01/02 06:56:40;;;;;;;1999.90;999.90;;;6.00;99.90;;;;;;5076192;28;20943;-67
2024/01/02 06:59:08;;;;;;;1999.90;999.90;;;5.90;99.90;;;;;;5075279;28;20431;-70
2024/01/02 07:01:36;;;;;;;1999.90;999.90;;;6.00;99.90;;;;;;5066553;28;20432;-70
2024/01/02 07:04:03;;;;;;;1999.90;999.90;;;5.90;99.90;;;;;;5072911;28;20412;-70
2024/01/02 07:06:31;;;;;;;1999.90;999.90;;;5.90;99.90;;;;;;5072663;28;20440;-72
2024/01/02 07:08:57;;;;;;;1999.90;999.90;;;5.90;99.90;;;;;;5069228;28;20431;-71
2024/01/02 07:11:24;;;;;;;1999.90;999.90;;;5.90;99.90;;;;;;5073438;28;20404;-70
2024/01/02 07:13:51;;;;;;;1999.90;999.90;;;5.80;99.90;;;;;;5074088;28;20461;-71
2024/01/02 07:16:19;;;;;;;1999.90;999.90;;;5.90;99.90;;;;;;5092425;28;20463;-70
2024/01/02 07:18:45;;;;;;;1999.90;999.90;;;5.90;99.90;;;;;;5087512;28;20417;-70
2024/01/02 07:21:12;;;;;;;1999.90;999.90;;;5.80;99.90;;;;;;5071474;28;20428;-70
2024/01/02 07:23:39;;;;;;;1999.90;999.90;;;5.90;99.90;;;;;;5080620;28;20413;-71
2024/01/02 07:26:05;;;;;;;1999.90;999.90;;;5.90;99.90;;;;;;5092479;28;20410;-70
2024/01/02 07:28:32;;;;;;;1999.90;999.90;;;5.90;99.90;;;;;;5078406;28;20921;-71
2024/01/02 07:30:59;;;;;;;1999.90;999.90;;;5.90;99.90;;;;;;5073088;28;20408;-72
2024/01/02 07:33:27;;;;;;;1999.90;999.90;;;6.00;99.90;;;;;;5086970;28;20417;-71
2024/01/02 07:35:53;;;;;;;1999.90;999.90;;;5.90;99.90;;;;;;5091761;28;20410;-70
2024/01/02 07:38:20;;;;;;;1999.90;999.90;;;5.90;99.90;;;;;;5080962;28;20427;-70
2024/01/02 07:40:47;;;;;;;1999.90;999.90;;;5.90;99.90;;;;;;5073434;28;20420;-70
2024/01/02 07:43:14;;;;;;;1999.90;999.90;;;5.90;99.90;;;;;;5072053;28;20416;-73
2024/01/02 07:45:40;;;;;;;1999.90;999.90;;;5.90;99.90;;;;;;5088840;28;20416;-71
2024/01/02 07:48:07;;;;;;;1999.90;999.90;;;6.00;99.90;;;;;;5091502;28;20412;-71
2024/01/02 07:50:35;;;;;;;1999.90;999.90;;;5.90;99.90;;;;;;5081998;28;20905;-71
2024/01/02 07:53:02;;;;;;;1999.90;999.90;;;6.00;99.90;;;;;;5073261;28;20410;-70
2024/01/02 07:55:29;;;;;;;1999.90;999.90;;;5.90;99.90;;;;;;5091849;28;20432;-70
2024/01/02 07:57:56;;;;;;;1999.90;999.90;;;5.90;99.90;;;;;;5091551;28;20417;-70
2024/01/02 08:00:23;;;;;;;1999.90;999.90;;;5.80;99.90;;;;;;5081588;28;20913;-72
2024/01/02 08:02:49;;;;;;;1999.90;999.90;;;5.80;99.90;;;;;;5073424;28;20434;-69
2024/01/02 08:05:16;;;;;;;1999.90;999.90;;;5.70;99.90;;;;;;5076292;28;20414;-71
2024/01/02 08:07:44;;;;;;;1999.90;999.90;;;5.70;99.90;;;;;;5080686;28;20414;-75
2024/01/02 08:10:11;;;;;;;1999.90;999.90;;;5.70;99.90;;;;;;5083056;28;20434;-72
2024/01/02 08:12:38;;;;;;;1999.90;999.90;;;5.80;99.90;;;;;;5075790;28;20413;-70
2024/01/02 08:15:05;;;;;;;1999.90;999.90;;;5.80;99.90;;;;;;5076633;28;20436;-69
2024/01/02 08:17:32;;;;;;;1999.90;999.90;;;5.70;99.90;;;;;;5068384;28;20440;-71
2024/01/02 08:19:59;;;;;;;1999.90;999.90;;;5.60;99.90;;;;;;5072391;28;20429;-70
2024/01/02 08:22:26;;;;;;;1999.90;999.90;;;5.50;99.90;;;;;;5071905;28;20427;-71
2024/01/02 08:24:54;;;;;;;1999.90;999.90;;;5.40;99.90;;;;;;5073108;28;20469;-69
2024/01/02 08:27:24;;;;;;;1999.90;999.90;;;5.40;99.90;;;;;;5071461;28;20412;-70
2024/01/02 08:29:51;;;;;;;1999.90;999.90;;;5.50;99.90;;;;;;5070293;28;20932;-72
2024/01/02 08:32:20;;;;;;;1999.90;999.90;;;5.50;99.90;;;;;;5083254;28;20431;-71
2024/01/02 08:34:46;;;;;;;1999.90;999.90;;;5.50;99.90;;;;;;5093123;28;20479;-73
2024/01/02 08:37:13;;;;;;;1999.90;999.90;;;5.30;99.90;;;;;;5096131;28;20403;-71
2024/01/02 08:39:40;;;;;;;1999.90;999.90;;;5.30;99.90;;;;;;5110390;28;20410;-68
2024/01/02 08:42:08;;;;;;;1999.90;999.90;;;5.10;99.90;;;;;;5088410;28;20426;-69
2024/01/02 08:44:34;;;;;;;1999.90;999.90;;;5.10;99.90;;;;;;5072377;28;20435;-68
2024/01/02 08:47:01;;;;;;;1999.90;999.90;;;5.20;99.90;;;;;;5073359;28;20411;-69
2024/01/02 08:49:28;;;;;;;1999.90;999.90;;;5.20;99.90;;;;;;5079156;28;20414;-69
2024/01/02 08:51:55;;;;;;;1999.90;999.90;;;5.30;99.90;;;;;;5091279;28;20413;-69
2024/01/02 08:54:22;;;;;;;1999.90;999.90;;;5.30;99.90;;;;;;5075195;28;20439;-69
2024/01/02 08:56:48;;;;;;;1999.90;999.90;;;5.40;99.90;;;;;;5070667;28;20411;-69
2024/01/02 08:59:16;;;;;;;1999.90;999.90;;;5.30;99.90;;;;;;5084252;28;20779;-69
2024/01/02 09:01:43;;;;;;;1999.90;999.90;;;5.30;99.90;;;;;;5090612;28;20429;-67
2024/01/02 09:04:10;;;;;;;1999.90;999.90;;;5.40;99.90;;;;;;5085067;28;20438;-69
2024/01/02 09:06:36;;;;;;;1999.90;999.90;;;5.40;99.90;;;;;;5072969;28;20408;-72
2024/01/02 09:09:05;;;;;;;1999.90;999.90;;;5.40;99.90;;;;;;5070681;28;20903;-70
2024/01/02 09:11:32;;;;;;;1999.90;999.90;;;5.40;99.90;;;;;;5072659;28;20436;-69
2024/01/02 09:13:59;;;;;;;1999.90;999.90;;;5.40;99.90;;;;;;5073670;28;20414;-72
2024/01/02 09:16:31;;;;;;;1999.90;999.90;;;5.50;99.90;;;;;;5073762;28;20473;-70
2024/01/02 09:18:58;;;;;;;1999.90;999.90;;;5.60;99.90;;;;;;5072689;28;20417;-70
2024/01/02 09:21:24;;;;;;;1999.90;999.90;;;5.60;99.90;;;;;;5071144;28;20419;-70
2024/01/02 09:23:51;;;;;;;1999.90;999.90;;;5.60;99.90;;;;;;5076464;28;20427;-71
2024/01/02 09:26:20;;;;;;;1999.90;999.90;;;5.70;99.90;;;;;;5073128;28;20411;-73
2024/01/02 09:28:47;;;;;;;1999.90;999.90;;;5.70;99.90;;;;;;5075654;28;20493;-71
2024/01/02 09:31:14;;;;;;;1999.90;999.90;;;5.80;99.90;;;;;;5074424;28;20416;-71
2024/01/02 09:33:43;;;;;;;1999.90;999.90;;;5.70;99.90;;;;;;5072078;28;20441;-70
2024/01/02 09:36:10;;;;;;;1999.90;999.90;;;5.90;99.90;;;;;;5076213;28;20414;-70
2024/01/02 09:38:38;;;;;;;1999.90;999.90;;;5.90;99.90;;;;;;5067512;28;20928;-73
2024/01/02 09:41:19;;;;;;;1999.90;999.90;;;5.80;99.90;;;;;;5078634;28;20824;-69
2024/01/02 09:43:57;;;;;;;1999.90;999.90;;;5.90;99.90;;;;;;5071802;28;20435;-69
2024/01/02 09:46:35;;;;;;;1999.90;999.90;;;6.00;99.90;;;;;;5073379;28;20414;-69
2024/01/02 09:49:20;;;;;;;1999.90;999.90;;;6.10;99.90;;;;;;5076455;28;20413;-69
2024/01/02 09:51:57;;;;;;;1999.90;999.90;;;6.10;99.90;;;;;;5072084;28;20403;-69
2024/01/02 09:54:38;;;;;;;1999.90;999.90;;;6.30;99.90;;;;;;5067637;28;20443;-70
2024/01/02 09:57:14;;;;;;;1999.90;999.90;;;6.40;99.90;;;;;;5067808;28;20976;-72
2024/01/02 09:59:53;;;;;;;1999.90;999.90;;;6.40;99.90;;;;;;5073278;28;20562;-69
2024/01/02 10:02:39;;;;;;;1999.90;999.90;;;6.40;99.90;;;;;;5080913;28;20430;-70
2024/01/02 10:05:17;;;;;;;1999.90;999.90;;;6.50;99.90;;;;;;5073237;28;20404;-70
2024/01/02 10:08:15;;;;;;;1999.90;999.90;;;6.50;99.90;;;;;;5075823;28;21220;-71
2024/01/02 10:10:48;;;;;;;1999.90;999.90;;;6.50;99.90;;;;;;5080117;28;20439;-70
2024/01/02 10:13:23;;;;;;;1999.90;999.90;;;6.70;99.90;;;;;;5082754;28;20410;-70
2024/01/02 10:15:59;;;;;;;1999.90;999.90;;;6.80;99.90;;;;;;5078840;28;20822;-70
2024/01/02 10:18:36;;;;;;;1999.90;999.90;;;6.90;99.90;;;;;;5071554;28;20435;-69
2024/01/02 10:21:16;;;;;;;1999.90;999.90;;;7.10;99.90;;;;;;5073765;28;20406;-68
2024/01/02 10:23:55;;;;;;;1999.90;999.90;;;7.20;99.90;;;;;;5093341;28;20549;-70
2024/01/02 10:26:25;;;;;;;1999.90;999.90;;;7.30;99.90;;;;;;5093658;28;20436;-70
2024/01/02 10:28:59;;;;;;;1999.90;999.90;;;7.40;99.90;;;;;;5083911;28;20941;-71
2024/01/02 10:31:35;;;;;;;1999.90;999.90;;;7.50;99.90;;;;;;5072809;28;20424;-71
2024/01/02 10:34:11;;;;;;;1999.90;999.90;;;7.60;99.90;;;;;;5093150;28;20402;-69
2024/01/02 10:36:48;;;;;;;1999.90;999.90;;;7.50;99.90;;;;;;5093331;28;20409;-75
2024/01/02 10:39:24;;;;;;;1999.90;999.90;;;7.60;99.90;;;;;;5080721;28;20518;-71
2024/01/02 10:41:58;;;;;;;1999.90;999.90;;;7.70;99.90;;;;;;5074501;28;20485;-70
2024/01/02 10:44:37;;;;;;;1999.90;999.90;;;7.80;99.90;;;;;;5092868;28;20413;-70
2024/01/02 10:47:12;;;;;;;1999.90;999.90;;;7.90;99.90;;;;;;5093282;28;20398;-68
2024/01/02 10:49:41;;;;;;;1999.90;999.90;;;8.00;99.90;;;;;;5080572;28;20432;-70
2024/01/02 10:52:18;;;;;;;1999.90;999.90;;;8.10;99.90;;;;;;5074431;28;20428;-70
2024/01/02 10:54:54;;;;;;;1999.90;999.90;;;8.10;99.90;;;;;;5077346;28;20419;-70
2024/01/02 10:57:30;;;;;;;1999.90;999.90;;;8.20;99.90;;;;;;5080177;28;20406;-70
2024/01/02 11:00:07;;;;;;;1999.90;999.90;;;8.80;99.90;;;;;;5083797;28;20404;-70
2024/01/02 11:02:42;;;;;;;1999.90;999.90;;;9.20;99.90;;;;;;5081092;28;20432;-69
2024/01/02 11:05:12;;;;;;;1999.90;999.90;;;9.60;99.90;;;;;;5074091;28;20491;-70
2024/01/02 11:07:47;;;;;;;1999.90;999.90;;;9.70;99.90;;;;;;5076510;28;20439;-71
2024/01/02 11:10:15;;;;;;;1999.90;999.90;;;9.80;99.90;;;;;;5081211;28;20409;-70
2024/01/02 11:12:55;;;;;;;1999.90;999.90;;;9.90;99.90;;;;;;5079813;28;20461;-70
2024/01/02 11:15:24;;;;;;;1999.90;999.90;;;9.80;99.90;;;;;;5083480;28;20503;-71
2024/01/02 11:17:53;;;;;;;1999.90;999.90;;;9.80;99.90;;;;;;5083128;28;20408;-72
2024/01/02 11:20:21;;;;;;;1999.90;999.90;;;9.90;99.90;;;;;;5084236;28;20493;-72
2024/01/02 11:22:53;;;;;;;1999.90;999.90;;;9.80;99.90;;;;;;5082386;28;20472;-73
2024/01/02 11:25:25;;;;;;;1999.90;999.90;;;9.90;99.90;;;;;;5075137;28;20450;-71
2024/01/02 11:27:54;;;;;;;1999.90;999.90;;;10.00;99.90;;;;;;5078510;28;20421;-71
2024/01/02 11:30:22;;;;;;;1999.90;999.90;;;10.00;99.90;;;;;;5083113;28;20517;-69
2024/01/02 11:33:02;;;;;;;1999.90;999.90;;;10.00;99.90;;;;;;5080570;28;20414;-71
2024/01/02 11:35:36;;;;;;;1999.90;999.90;;;10.00;99.90;;;;;;5077631;28;20499;-71
2024/01/02 11:38:10;;;;;;;1999.90;999.90;;;10.10;99.90;;;;;;5074809;28;20406;-71
2024/01/02 11:40:48;;;;;;;1999.90;999.90;;;10.10;99.90;;;;;;5069289;28;20427;-71
2024/01/02 11:43:22;;;;;;;1999.90;999.90;;;10.20;99.90;;;;;;5078097;28;20430;-71
2024/01/02 11:45:56;;;;;;;1999.90;999.90;;;10.30;99.90;;;;;;5081058;28;20422;-71
2024/01/02 11:48:36;;;;;;;1999.90;999.90;;;10.30;99.90;;;;;;5067739;28;20463;-71
2024/01/02 11:51:09;;;;;;;1999.90;999.90;;;10.30;99.90;;;;;;5073245;28;20417;-72
2024/01/02 11:53:53;;;;;;;1999.90;999.90;;;10.40;99.90;;;;;;5075122;28;20407;-71
2024/01/02 11:56:23;;;;;;;1999.90;999.90;;;10.50;99.90;;;;;;5073347;28;20431;-71
2024/01/02 11:58:58;;;;;;;1999.90;999.90;;;10.60;99.90;;;;;;5070657;28;20427;-71
2024/01/02 12:01:31;;;;;;;1999.90;999.90;;;10.60;99.90;;;;;;5076869;28;21303;-70
2024/01/02 12:04:07;;;;;;;1999.90;999.90;;;10.70;99.90;;;;;;5070702;28;20435;-70
2024/01/02 12:06:40;;;;;;;1999.90;999.90;;;10.70;99.90;;;;;;5074191;28;20404;-71
2024/01/02 12:09:14;;;;;;;1999.90;999.90;;;10.80;99.90;;;;;;5073511;28;20407;-71
2024/01/02 12:11:48;;;;;;;1999.90;999.90;;;10.80;99.90;;;;;;5073419;28;20488;-71
2024/01/02 12:14:29;;;;;;;1999.90;999.90;;;10.90;99.90;;;;;;5079530;28;20765;-70
2024/01/02 12:17:01;;;;;;;1999.90;999.90;;;10.90;99.90;;;;;;5072939;28;21309;-70